Terminal Aerodrome Forecast
Issued by NWS Grand Forks, ND

Home | Current Version | Previous Version | Graphics & Text | Print | Product List | Glossary On
Versions: 1 2 3 4 5 6 7 8 9 10 11 12 13 14 15 16 17
588
FTUS43 KFGF 162246 AAA
TAFGFK
TAF AMD
KGFK 162246Z 1623/1718 15018G30KT P6SM SCT019 OVC130
     FM170300 17014KT P6SM OVC090
     FM171100 21009KT P6SM BKN080
     FM171700 32009KT P6SM BKN200=

USA.gov is the U.S. government's official web portal to all federal, state and local government web resources and services.